sensor_id;sensor_type;location;lat;lon;timestamp;P1;durP1;ratioP1;P2;durP2;ratioP2
61905;SDS011;47863;55.766;37.672;2023-08-08T00:01:49;5.03;;;2.67;;
61905;SDS011;47863;55.766;37.672;2023-08-08T00:04:15;3.90;;;2.50;;
61905;SDS011;47863;55.766;37.672;2023-08-08T00:06:40;5.28;;;2.10;;
61905;SDS011;47863;55.766;37.672;2023-08-08T00:09:06;3.42;;;2.47;;
61905;SDS011;47863;55.766;37.672;2023-08-08T00:11:32;3.15;;;2.20;;
61905;SDS011;47863;55.766;37.672;2023-08-08T00:13:58;3.05;;;2.17;;
61905;SDS011;47863;55.766;37.672;2023-08-08T00:16:24;4.43;;;2.22;;
61905;SDS011;47863;55.766;37.672;2023-08-08T00:18:50;4.53;;;2.92;;
61905;SDS011;47863;55.766;37.672;2023-08-08T00:21:19;3.20;;;2.08;;
61905;SDS011;47863;55.766;37.672;2023-08-08T00:23:45;5.57;;;2.58;;
61905;SDS011;47863;55.766;37.672;2023-08-08T00:26:11;3.55;;;2.70;;
61905;SDS011;47863;55.766;37.672;2023-08-08T00:28:37;4.30;;;2.42;;
61905;SDS011;47863;55.766;37.672;2023-08-08T00:31:02;4.28;;;2.90;;
61905;SDS011;47863;55.766;37.672;2023-08-08T00:33:28;3.80;;;2.53;;
61905;SDS011;47863;55.766;37.672;2023-08-08T00:35:54;4.47;;;2.92;;
61905;SDS011;47863;55.766;37.672;2023-08-08T00:38:19;4.70;;;2.83;;
61905;SDS011;47863;55.766;37.672;2023-08-08T00:40:45;3.30;;;2.38;;
61905;SDS011;47863;55.766;37.672;2023-08-08T00:43:11;3.88;;;2.70;;
61905;SDS011;47863;55.766;37.672;2023-08-08T00:45:36;3.33;;;2.30;;
61905;SDS011;47863;55.766;37.672;2023-08-08T00:48:03;4.28;;;2.47;;
61905;SDS011;47863;55.766;37.672;2023-08-08T00:50:29;3.40;;;2.50;;
61905;SDS011;47863;55.766;37.672;2023-08-08T00:52:55;3.88;;;2.50;;
61905;SDS011;47863;55.766;37.672;2023-08-08T00:55:21;3.35;;;2.15;;
61905;SDS011;47863;55.766;37.672;2023-08-08T00:57:47;3.72;;;2.50;;
61905;SDS011;47863;55.766;37.672;2023-08-08T01:00:13;3.40;;;2.42;;
61905;SDS011;47863;55.766;37.672;2023-08-08T01:02:39;3.65;;;2.35;;
61905;SDS011;47863;55.766;37.672;2023-08-08T01:05:04;3.35;;;2.25;;
61905;SDS011;47863;55.766;37.672;2023-08-08T01:07:43;3.70;;;2.47;;
61905;SDS011;47863;55.766;37.672;2023-08-08T01:10:28;3.80;;;2.42;;
61905;SDS011;47863;55.766;37.672;2023-08-08T01:13:00;3.78;;;2.63;;
61905;SDS011;47863;55.766;37.672;2023-08-08T01:15:30;4.15;;;2.60;;
61905;SDS011;47863;55.766;37.672;2023-08-08T01:18:07;4.18;;;2.42;;
61905;SDS011;47863;55.766;37.672;2023-08-08T01:20:35;3.78;;;2.40;;
61905;SDS011;47863;55.766;37.672;2023-08-08T01:25:58;3.03;;;2.10;;
61905;SDS011;47863;55.766;37.672;2023-08-08T01:28:24;2.75;;;2.13;;
61905;SDS011;47863;55.766;37.672;2023-08-08T01:30:50;3.55;;;2.33;;
61905;SDS011;47863;55.766;37.672;2023-08-08T01:33:16;4.30;;;2.60;;
61905;SDS011;47863;55.766;37.672;2023-08-08T01:35:43;2.85;;;2.00;;
61905;SDS011;47863;55.766;37.672;2023-08-08T01:38:36;3.00;;;2.00;;
61905;SDS011;47863;55.766;37.672;2023-08-08T01:41:05;4.55;;;2.65;;
61905;SDS011;47863;55.766;37.672;2023-08-08T01:43:32;2.95;;;2.22;;
61905;SDS011;47863;55.766;37.672;2023-08-08T01:45:59;4.57;;;2.78;;
61905;SDS011;47863;55.766;37.672;2023-08-08T01:48:27;3.65;;;2.55;;
61905;SDS011;47863;55.766;37.672;2023-08-08T01:50:53;3.92;;;2.60;;
61905;SDS011;47863;55.766;37.672;2023-08-08T01:53:18;4.28;;;2.55;;
61905;SDS011;47863;55.766;37.672;2023-08-08T01:55:44;3.53;;;2.08;;
61905;SDS011;47863;55.766;37.672;2023-08-08T01:58:09;3.72;;;2.75;;
61905;SDS011;47863;55.766;37.672;2023-08-08T02:00:35;3.78;;;2.63;;
61905;SDS011;47863;55.766;37.672;2023-08-08T02:03:02;3.28;;;2.30;;
61905;SDS011;47863;55.766;37.672;2023-08-08T02:05:27;3.50;;;2.33;;
61905;SDS011;47863;55.766;37.672;2023-08-08T02:07:53;4.63;;;2.30;;
61905;SDS011;47863;55.766;37.672;2023-08-08T02:10:19;3.40;;;2.17;;
61905;SDS011;47863;55.766;37.672;2023-08-08T02:12:45;4.05;;;1.90;;
61905;SDS011;47863;55.766;37.672;2023-08-08T02:15:11;4.07;;;2.42;;
61905;SDS011;47863;55.766;37.672;2023-08-08T02:17:37;3.45;;;2.00;;
61905;SDS011;47863;55.766;37.672;2023-08-08T02:20:05;5.60;;;2.60;;
61905;SDS011;47863;55.766;37.672;2023-08-08T02:22:32;4.57;;;2.40;;
61905;SDS011;47863;55.766;37.672;2023-08-08T02:24:58;4.90;;;2.38;;
61905;SDS011;47863;55.766;37.672;2023-08-08T02:27:23;3.10;;;2.28;;
61905;SDS011;47863;55.766;37.672;2023-08-08T02:29:49;4.03;;;2.15;;
61905;SDS011;47863;55.766;37.672;2023-08-08T02:32:14;3.60;;;2.30;;
61905;SDS011;47863;55.766;37.672;2023-08-08T02:34:40;3.17;;;2.33;;
61905;SDS011;47863;55.766;37.672;2023-08-08T02:37:06;3.10;;;2.20;;
61905;SDS011;47863;55.766;37.672;2023-08-08T02:39:32;3.70;;;2.50;;
61905;SDS011;47863;55.766;37.672;2023-08-08T02:41:57;3.92;;;2.78;;
61905;SDS011;47863;55.766;37.672;2023-08-08T02:44:23;4.68;;;2.50;;
61905;SDS011;47863;55.766;37.672;2023-08-08T02:46:48;7.85;;;3.28;;
61905;SDS011;47863;55.766;37.672;2023-08-08T02:49:14;5.20;;;2.70;;
61905;SDS011;47863;55.766;37.672;2023-08-08T02:51:40;3.70;;;2.30;;
61905;SDS011;47863;55.766;37.672;2023-08-08T02:54:05;3.35;;;2.40;;
61905;SDS011;47863;55.766;37.672;2023-08-08T02:56:31;3.55;;;2.53;;
61905;SDS011;47863;55.766;37.672;2023-08-08T02:58:57;4.55;;;2.50;;
61905;SDS011;47863;55.766;37.672;2023-08-08T03:01:23;3.45;;;2.38;;
61905;SDS011;47863;55.766;37.672;2023-08-08T03:03:49;3.92;;;2.53;;
61905;SDS011;47863;55.766;37.672;2023-08-08T03:06:14;4.40;;;2.45;;
61905;SDS011;47863;55.766;37.672;2023-08-08T03:08:40;3.95;;;2.60;;
61905;SDS011;47863;55.766;37.672;2023-08-08T03:11:06;3.13;;;2.15;;
61905;SDS011;47863;55.766;37.672;2023-08-08T03:13:32;3.45;;;2.10;;
61905;SDS011;47863;55.766;37.672;2023-08-08T03:15:57;3.97;;;2.63;;
61905;SDS011;47863;55.766;37.672;2023-08-08T03:18:23;3.67;;;2.47;;
61905;SDS011;47863;55.766;37.672;2023-08-08T03:20:51;4.40;;;2.10;;
61905;SDS011;47863;55.766;37.672;2023-08-08T03:23:17;3.90;;;2.20;;
61905;SDS011;47863;55.766;37.672;2023-08-08T03:25:43;3.90;;;2.38;;
61905;SDS011;47863;55.766;37.672;2023-08-08T03:28:08;3.05;;;2.28;;
61905;SDS011;47863;55.766;37.672;2023-08-08T03:30:36;3.65;;;2.58;;
61905;SDS011;47863;55.766;37.672;2023-08-08T03:33:03;4.80;;;2.97;;
61905;SDS011;47863;55.766;37.672;2023-08-08T03:35:29;3.78;;;2.38;;
61905;SDS011;47863;55.766;37.672;2023-08-08T03:37:54;4.35;;;2.50;;
61905;SDS011;47863;55.766;37.672;2023-08-08T03:40:20;4.90;;;2.60;;
61905;SDS011;47863;55.766;37.672;2023-08-08T03:42:45;3.38;;;2.10;;
61905;SDS011;47863;55.766;37.672;2023-08-08T03:45:11;3.50;;;2.28;;
61905;SDS011;47863;55.766;37.672;2023-08-08T03:47:37;4.38;;;2.38;;
61905;SDS011;47863;55.766;37.672;2023-08-08T03:50:02;3.72;;;2.33;;
61905;SDS011;47863;55.766;37.672;2023-08-08T03:52:30;3.72;;;2.33;;
61905;SDS011;47863;55.766;37.672;2023-08-08T03:54:56;3.65;;;2.70;;
61905;SDS011;47863;55.766;37.672;2023-08-08T03:57:21;3.83;;;2.45;;
61905;SDS011;47863;55.766;37.672;2023-08-08T03:59:47;6.57;;;2.92;;
61905;SDS011;47863;55.766;37.672;2023-08-08T04:02:13;3.75;;;2.38;;
61905;SDS011;47863;55.766;37.672;2023-08-08T04:04:38;4.00;;;2.90;;
61905;SDS011;47863;55.766;37.672;2023-08-08T04:07:04;6.45;;;2.80;;
61905;SDS011;47863;55.766;37.672;2023-08-08T04:09:29;5.70;;;3.10;;
61905;SDS011;47863;55.766;37.672;2023-08-08T04:11:56;5.57;;;2.75;;
61905;SDS011;47863;55.766;37.672;2023-08-08T04:14:21;4.53;;;2.63;;
61905;SDS011;47863;55.766;37.672;2023-08-08T04:16:47;4.97;;;3.10;;
61905;SDS011;47863;55.766;37.672;2023-08-08T04:19:12;4.43;;;2.72;;
61905;SDS011;47863;55.766;37.672;2023-08-08T04:21:38;3.58;;;2.45;;
61905;SDS011;47863;55.766;37.672;2023-08-08T04:24:03;3.85;;;2.22;;
61905;SDS011;47863;55.766;37.672;2023-08-08T04:26:29;4.20;;;2.53;;
61905;SDS011;47863;55.766;37.672;2023-08-08T04:28:55;3.92;;;2.60;;
61905;SDS011;47863;55.766;37.672;2023-08-08T04:31:20;5.05;;;2.45;;
61905;SDS011;47863;55.766;37.672;2023-08-08T04:33:49;6.55;;;3.03;;
61905;SDS011;47863;55.766;37.672;2023-08-08T04:36:15;3.85;;;2.60;;
61905;SDS011;47863;55.766;37.672;2023-08-08T04:38:40;5.03;;;3.20;;
61905;SDS011;47863;55.766;37.672;2023-08-08T04:41:06;5.25;;;2.72;;
61905;SDS011;47863;55.766;37.672;2023-08-08T04:43:31;5.07;;;2.65;;
61905;SDS011;47863;55.766;37.672;2023-08-08T04:45:57;3.63;;;2.45;;
61905;SDS011;47863;55.766;37.672;2023-08-08T04:48:22;5.60;;;3.08;;
61905;SDS011;47863;55.766;37.672;2023-08-08T04:50:48;4.15;;;2.80;;
61905;SDS011;47863;55.766;37.672;2023-08-08T04:53:13;4.20;;;2.90;;
61905;SDS011;47863;55.766;37.672;2023-08-08T04:55:39;5.57;;;3.25;;
61905;SDS011;47863;55.766;37.672;2023-08-08T04:58:05;4.38;;;2.70;;
61905;SDS011;47863;55.766;37.672;2023-08-08T05:00:30;4.00;;;2.75;;
61905;SDS011;47863;55.766;37.672;2023-08-08T05:02:56;4.28;;;2.90;;
61905;SDS011;47863;55.766;37.672;2023-08-08T05:05:21;5.18;;;2.55;;
61905;SDS011;47863;55.766;37.672;2023-08-08T05:07:47;3.13;;;2.13;;
61905;SDS011;47863;55.766;37.672;2023-08-08T05:10:13;6.35;;;3.38;;
61905;SDS011;47863;55.766;37.672;2023-08-08T05:12:39;9.60;;;3.40;;
61905;SDS011;47863;55.766;37.672;2023-08-08T05:15:05;4.82;;;3.05;;
61905;SDS011;47863;55.766;37.672;2023-08-08T05:17:31;5.60;;;3.28;;
61905;SDS011;47863;55.766;37.672;2023-08-08T05:19:57;3.90;;;2.60;;
61905;SDS011;47863;55.766;37.672;2023-08-08T05:22:23;4.45;;;3.17;;
61905;SDS011;47863;55.766;37.672;2023-08-08T05:24:48;4.28;;;2.67;;
61905;SDS011;47863;55.766;37.672;2023-08-08T05:27:14;4.47;;;2.70;;
61905;SDS011;47863;55.766;37.672;2023-08-08T05:29:39;6.35;;;3.30;;
61905;SDS011;47863;55.766;37.672;2023-08-08T05:32:06;8.43;;;3.20;;
61905;SDS011;47863;55.766;37.672;2023-08-08T05:34:33;5.57;;;3.10;;
61905;SDS011;47863;55.766;37.672;2023-08-08T05:36:59;6.45;;;2.97;;
61905;SDS011;47863;55.766;37.672;2023-08-08T05:39:24;5.28;;;3.58;;
61905;SDS011;47863;55.766;37.672;2023-08-08T05:41:50;3.47;;;2.65;;
61905;SDS011;47863;55.766;37.672;2023-08-08T05:44:15;5.18;;;3.10;;
61905;SDS011;47863;55.766;37.672;2023-08-08T05:46:41;4.90;;;3.20;;
61905;SDS011;47863;55.766;37.672;2023-08-08T05:49:07;4.88;;;2.70;;
61905;SDS011;47863;55.766;37.672;2023-08-08T05:51:32;6.00;;;3.47;;
61905;SDS011;47863;55.766;37.672;2023-08-08T05:53:58;3.83;;;2.92;;
61905;SDS011;47863;55.766;37.672;2023-08-08T05:56:23;5.50;;;3.42;;
61905;SDS011;47863;55.766;37.672;2023-08-08T05:58:49;5.65;;;3.50;;
61905;SDS011;47863;55.766;37.672;2023-08-08T06:01:14;5.40;;;3.65;;
61905;SDS011;47863;55.766;37.672;2023-08-08T06:03:40;4.78;;;2.92;;
61905;SDS011;47863;55.766;37.672;2023-08-08T06:06:07;5.53;;;3.40;;
61905;SDS011;47863;55.766;37.672;2023-08-08T06:08:33;4.35;;;3.17;;
61905;SDS011;47863;55.766;37.672;2023-08-08T06:10:59;4.90;;;3.33;;
61905;SDS011;47863;55.766;37.672;2023-08-08T06:13:25;4.90;;;3.35;;
61905;SDS011;47863;55.766;37.672;2023-08-08T06:15:50;5.30;;;3.35;;
61905;SDS011;47863;55.766;37.672;2023-08-08T06:18:16;5.45;;;3.20;;
61905;SDS011;47863;55.766;37.672;2023-08-08T06:20:42;6.53;;;3.50;;
61905;SDS011;47863;55.766;37.672;2023-08-08T06:23:08;6.65;;;3.00;;
61905;SDS011;47863;55.766;37.672;2023-08-08T06:25:34;4.75;;;3.45;;
61905;SDS011;47863;55.766;37.672;2023-08-08T06:27:59;5.90;;;2.88;;
61905;SDS011;47863;55.766;37.672;2023-08-08T06:30:25;4.82;;;3.08;;
61905;SDS011;47863;55.766;37.672;2023-08-08T06:32:50;4.95;;;3.05;;
61905;SDS011;47863;55.766;37.672;2023-08-08T06:35:16;7.80;;;3.03;;
61905;SDS011;47863;55.766;37.672;2023-08-08T06:37:42;4.75;;;2.75;;
61905;SDS011;47863;55.766;37.672;2023-08-08T06:40:09;6.38;;;3.10;;
61905;SDS011;47863;55.766;37.672;2023-08-08T06:42:36;4.20;;;2.90;;
61905;SDS011;47863;55.766;37.672;2023-08-08T06:45:01;5.80;;;3.38;;
61905;SDS011;47863;55.766;37.672;2023-08-08T06:47:29;4.43;;;2.78;;
61905;SDS011;47863;55.766;37.672;2023-08-08T06:49:55;4.35;;;3.25;;
61905;SDS011;47863;55.766;37.672;2023-08-08T06:52:21;4.90;;;3.17;;
61905;SDS011;47863;55.766;37.672;2023-08-08T06:54:47;4.65;;;2.83;;
61905;SDS011;47863;55.766;37.672;2023-08-08T06:57:13;4.72;;;3.17;;
61905;SDS011;47863;55.766;37.672;2023-08-08T06:59:38;8.43;;;3.53;;
61905;SDS011;47863;55.766;37.672;2023-08-08T07:02:04;7.00;;;3.20;;
61905;SDS011;47863;55.766;37.672;2023-08-08T07:04:30;5.72;;;3.13;;
61905;SDS011;47863;55.766;37.672;2023-08-08T07:06:55;8.65;;;3.67;;
61905;SDS011;47863;55.766;37.672;2023-08-08T07:09:21;7.10;;;3.38;;
61905;SDS011;47863;55.766;37.672;2023-08-08T07:11:47;5.68;;;3.28;;
61905;SDS011;47863;55.766;37.672;2023-08-08T07:14:13;4.40;;;3.22;;
61905;SDS011;47863;55.766;37.672;2023-08-08T07:16:38;5.40;;;3.33;;
61905;SDS011;47863;55.766;37.672;2023-08-08T07:19:04;4.75;;;3.38;;
61905;SDS011;47863;55.766;37.672;2023-08-08T07:21:31;5.30;;;3.17;;
61905;SDS011;47863;55.766;37.672;2023-08-08T07:23:57;8.05;;;3.70;;
61905;SDS011;47863;55.766;37.672;2023-08-08T07:26:23;6.13;;;3.42;;
61905;SDS011;47863;55.766;37.672;2023-08-08T07:28:48;8.00;;;5.15;;
61905;SDS011;47863;55.766;37.672;2023-08-08T07:31:14;6.30;;;3.78;;
61905;SDS011;47863;55.766;37.672;2023-08-08T07:33:39;6.10;;;3.47;;
61905;SDS011;47863;55.766;37.672;2023-08-08T07:36:05;6.95;;;3.20;;
61905;SDS011;47863;55.766;37.672;2023-08-08T07:38:30;4.38;;;2.83;;
61905;SDS011;47863;55.766;37.672;2023-08-08T07:40:58;5.90;;;3.33;;
61905;SDS011;47863;55.766;37.672;2023-08-08T07:43:23;6.00;;;3.38;;
61905;SDS011;47863;55.766;37.672;2023-08-08T07:45:49;5.38;;;3.42;;
61905;SDS011;47863;55.766;37.672;2023-08-08T07:48:14;8.10;;;3.53;;
61905;SDS011;47863;55.766;37.672;2023-08-08T07:50:41;5.43;;;3.53;;
61905;SDS011;47863;55.766;37.672;2023-08-08T07:53:06;5.68;;;3.17;;
61905;SDS011;47863;55.766;37.672;2023-08-08T07:55:32;5.40;;;3.63;;
61905;SDS011;47863;55.766;37.672;2023-08-08T07:57:58;5.88;;;3.38;;
61905;SDS011;47863;55.766;37.672;2023-08-08T08:00:24;6.10;;;3.33;;
61905;SDS011;47863;55.766;37.672;2023-08-08T08:02:49;7.20;;;3.42;;
61905;SDS011;47863;55.766;37.672;2023-08-08T08:05:15;5.40;;;3.60;;
61905;SDS011;47863;55.766;37.672;2023-08-08T08:07:41;5.85;;;3.50;;
61905;SDS011;47863;55.766;37.672;2023-08-08T08:10:07;7.53;;;3.78;;
61905;SDS011;47863;55.766;37.672;2023-08-08T08:12:35;8.50;;;3.30;;
61905;SDS011;47863;55.766;37.672;2023-08-08T08:15:02;5.43;;;3.60;;
61905;SDS011;47863;55.766;37.672;2023-08-08T08:17:32;7.07;;;3.72;;
61905;SDS011;47863;55.766;37.672;2023-08-08T08:19:57;5.97;;;3.83;;
61905;SDS011;47863;55.766;37.672;2023-08-08T08:22:23;6.10;;;3.67;;
61905;SDS011;47863;55.766;37.672;2023-08-08T08:24:49;5.35;;;3.83;;
61905;SDS011;47863;55.766;37.672;2023-08-08T08:27:15;7.47;;;3.35;;
61905;SDS011;47863;55.766;37.672;2023-08-08T08:29:41;10.07;;;3.95;;
61905;SDS011;47863;55.766;37.672;2023-08-08T08:32:06;8.77;;;3.35;;
61905;SDS011;47863;55.766;37.672;2023-08-08T08:34:32;5.10;;;3.63;;
61905;SDS011;47863;55.766;37.672;2023-08-08T08:36:57;5.85;;;3.75;;
61905;SDS011;47863;55.766;37.672;2023-08-08T08:39:23;6.93;;;3.95;;
61905;SDS011;47863;55.766;37.672;2023-08-08T08:41:49;5.20;;;3.80;;
61905;SDS011;47863;55.766;37.672;2023-08-08T08:44:24;7.47;;;3.78;;
61905;SDS011;47863;55.766;37.672;2023-08-08T08:46:51;7.30;;;4.13;;
61905;SDS011;47863;55.766;37.672;2023-08-08T08:49:18;6.78;;;3.95;;
61905;SDS011;47863;55.766;37.672;2023-08-08T08:51:47;8.45;;;4.30;;
61905;SDS011;47863;55.766;37.672;2023-08-08T08:54:12;8.10;;;3.50;;
61905;SDS011;47863;55.766;37.672;2023-08-08T08:56:40;9.50;;;4.05;;
61905;SDS011;47863;55.766;37.672;2023-08-08T08:59:07;6.57;;;4.35;;
61905;SDS011;47863;55.766;37.672;2023-08-08T09:01:32;9.73;;;4.50;;
61905;SDS011;47863;55.766;37.672;2023-08-08T09:03:58;10.45;;;4.13;;
61905;SDS011;47863;55.766;37.672;2023-08-08T09:06:24;5.88;;;4.03;;
61905;SDS011;47863;55.766;37.672;2023-08-08T09:08:52;6.00;;;4.13;;
61905;SDS011;47863;55.766;37.672;2023-08-08T09:11:17;8.00;;;4.28;;
61905;SDS011;47863;55.766;37.672;2023-08-08T09:13:43;6.07;;;4.03;;
61905;SDS011;47863;55.766;37.672;2023-08-08T09:16:09;6.97;;;4.00;;
61905;SDS011;47863;55.766;37.672;2023-08-08T09:18:35;5.38;;;3.92;;
61905;SDS011;47863;55.766;37.672;2023-08-08T09:21:04;8.90;;;4.40;;
61905;SDS011;47863;55.766;37.672;2023-08-08T09:23:31;7.25;;;4.00;;
61905;SDS011;47863;55.766;37.672;2023-08-08T09:25:56;6.95;;;4.57;;
61905;SDS011;47863;55.766;37.672;2023-08-08T09:28:22;7.07;;;4.43;;
61905;SDS011;47863;55.766;37.672;2023-08-08T09:30:48;6.28;;;4.15;;
61905;SDS011;47863;55.766;37.672;2023-08-08T09:33:14;6.38;;;4.32;;
61905;SDS011;47863;55.766;37.672;2023-08-08T09:35:40;6.05;;;4.00;;
61905;SDS011;47863;55.766;37.672;2023-08-08T09:38:06;6.70;;;3.80;;
61905;SDS011;47863;55.766;37.672;2023-08-08T09:40:32;6.97;;;3.85;;
61905;SDS011;47863;55.766;37.672;2023-08-08T09:42:58;6.15;;;4.35;;
61905;SDS011;47863;55.766;37.672;2023-08-08T09:45:24;9.18;;;4.28;;
61905;SDS011;47863;55.766;37.672;2023-08-08T09:47:50;8.13;;;4.63;;
61905;SDS011;47863;55.766;37.672;2023-08-08T09:50:17;6.82;;;4.28;;
61905;SDS011;47863;55.766;37.672;2023-08-08T09:52:45;6.90;;;4.65;;
61905;SDS011;47863;55.766;37.672;2023-08-08T09:55:11;6.25;;;3.90;;
61905;SDS011;47863;55.766;37.672;2023-08-08T09:57:38;6.47;;;4.38;;
61905;SDS011;47863;55.766;37.672;2023-08-08T10:00:06;5.88;;;4.28;;
61905;SDS011;47863;55.766;37.672;2023-08-08T10:02:41;9.38;;;6.07;;
61905;SDS011;47863;55.766;37.672;2023-08-08T10:05:08;7.85;;;4.13;;
61905;SDS011;47863;55.766;37.672;2023-08-08T10:07:35;6.18;;;3.95;;
61905;SDS011;47863;55.766;37.672;2023-08-08T10:10:01;6.50;;;4.28;;
61905;SDS011;47863;55.766;37.672;2023-08-08T10:12:30;9.88;;;5.50;;
61905;SDS011;47863;55.766;37.672;2023-08-08T10:14:56;6.32;;;4.65;;
61905;SDS011;47863;55.766;37.672;2023-08-08T10:17:22;6.82;;;4.45;;
61905;SDS011;47863;55.766;37.672;2023-08-08T10:19:51;6.00;;;4.38;;
61905;SDS011;47863;55.766;37.672;2023-08-08T10:22:20;7.53;;;4.30;;
61905;SDS011;47863;55.766;37.672;2023-08-08T10:24:50;8.85;;;4.53;;
61905;SDS011;47863;55.766;37.672;2023-08-08T10:27:27;7.45;;;4.65;;
61905;SDS011;47863;55.766;37.672;2023-08-08T10:30:00;6.32;;;4.63;;
61905;SDS011;47863;55.766;37.672;2023-08-08T10:32:37;8.55;;;5.22;;
61905;SDS011;47863;55.766;37.672;2023-08-08T10:35:05;9.05;;;5.30;;
61905;SDS011;47863;55.766;37.672;2023-08-08T10:37:31;8.40;;;4.68;;
61905;SDS011;47863;55.766;37.672;2023-08-08T10:39:58;8.95;;;4.72;;
61905;SDS011;47863;55.766;37.672;2023-08-08T10:42:26;8.02;;;5.28;;
61905;SDS011;47863;55.766;37.672;2023-08-08T10:44:54;11.60;;;4.93;;
61905;SDS011;47863;55.766;37.672;2023-08-08T10:47:22;6.60;;;5.50;;
61905;SDS011;47863;55.766;37.672;2023-08-08T10:52:30;6.15;;;4.10;;
61905;SDS011;47863;55.766;37.672;2023-08-08T10:54:56;6.28;;;4.50;;
61905;SDS011;47863;55.766;37.672;2023-08-08T10:57:24;7.50;;;4.82;;
61905;SDS011;47863;55.766;37.672;2023-08-08T10:59:50;8.88;;;5.05;;
61905;SDS011;47863;55.766;37.672;2023-08-08T11:02:16;8.00;;;5.07;;
61905;SDS011;47863;55.766;37.672;2023-08-08T11:04:43;10.05;;;5.57;;
61905;SDS011;47863;55.766;37.672;2023-08-08T11:07:09;8.05;;;4.85;;
61905;SDS011;47863;55.766;37.672;2023-08-08T11:09:36;5.70;;;4.38;;
61905;SDS011;47863;55.766;37.672;2023-08-08T11:12:01;6.50;;;5.05;;
61905;SDS011;47863;55.766;37.672;2023-08-08T11:14:27;8.68;;;5.13;;
61905;SDS011;47863;55.766;37.672;2023-08-08T11:16:53;6.72;;;5.03;;
61905;SDS011;47863;55.766;37.672;2023-08-08T11:19:18;6.43;;;4.35;;
61905;SDS011;47863;55.766;37.672;2023-08-08T11:21:45;5.72;;;4.80;;
61905;SDS011;47863;55.766;37.672;2023-08-08T11:24:12;6.88;;;4.80;;
61905;SDS011;47863;55.766;37.672;2023-08-08T11:26:41;6.97;;;4.72;;
61905;SDS011;47863;55.766;37.672;2023-08-08T11:29:09;7.63;;;5.22;;
61905;SDS011;47863;55.766;37.672;2023-08-08T11:31:34;5.97;;;4.68;;
61905;SDS011;47863;55.766;37.672;2023-08-08T11:34:00;10.32;;;5.22;;
61905;SDS011;47863;55.766;37.672;2023-08-08T11:36:30;8.45;;;5.53;;
61905;SDS011;47863;55.766;37.672;2023-08-08T11:39:00;6.63;;;4.78;;
61905;SDS011;47863;55.766;37.672;2023-08-08T11:41:33;8.05;;;5.43;;
61905;SDS011;47863;55.766;37.672;2023-08-08T11:44:02;10.55;;;4.88;;
61905;SDS011;47863;55.766;37.672;2023-08-08T11:46:32;6.90;;;5.25;;
61905;SDS011;47863;55.766;37.672;2023-08-08T11:49:04;8.43;;;4.88;;
61905;SDS011;47863;55.766;37.672;2023-08-08T11:51:32;6.40;;;5.05;;
61905;SDS011;47863;55.766;37.672;2023-08-08T11:54:02;7.65;;;5.53;;
61905;SDS011;47863;55.766;37.672;2023-08-08T11:56:33;7.00;;;5.35;;
61905;SDS011;47863;55.766;37.672;2023-08-08T11:58:59;8.80;;;5.25;;
61905;SDS011;47863;55.766;37.672;2023-08-08T12:01:26;7.63;;;5.40;;
61905;SDS011;47863;55.766;37.672;2023-08-08T12:03:53;6.55;;;5.07;;
61905;SDS011;47863;55.766;37.672;2023-08-08T12:06:21;9.43;;;5.40;;
61905;SDS011;47863;55.766;37.672;2023-08-08T12:08:47;7.65;;;5.72;;
61905;SDS011;47863;55.766;37.672;2023-08-08T12:11:14;8.27;;;5.45;;
61905;SDS011;47863;55.766;37.672;2023-08-08T12:13:41;6.63;;;5.22;;
61905;SDS011;47863;55.766;37.672;2023-08-08T12:16:11;8.73;;;5.75;;
61905;SDS011;47863;55.766;37.672;2023-08-08T12:18:38;6.63;;;5.40;;
61905;SDS011;47863;55.766;37.672;2023-08-08T12:21:07;7.22;;;6.10;;
61905;SDS011;47863;55.766;37.672;2023-08-08T12:23:34;8.68;;;6.18;;
61905;SDS011;47863;55.766;37.672;2023-08-08T12:26:02;11.55;;;5.93;;
61905;SDS011;47863;55.766;37.672;2023-08-08T12:30:56;10.82;;;6.05;;
61905;SDS011;47863;55.766;37.672;2023-08-08T12:33:22;6.25;;;5.30;;
61905;SDS011;47863;55.766;37.672;2023-08-08T12:35:48;7.82;;;5.30;;
61905;SDS011;47863;55.766;37.672;2023-08-08T12:38:14;9.82;;;5.90;;
61905;SDS011;47863;55.766;37.672;2023-08-08T12:40:39;6.90;;;5.22;;
61905;SDS011;47863;55.766;37.672;2023-08-08T12:43:05;8.50;;;5.85;;
61905;SDS011;47863;55.766;37.672;2023-08-08T12:45:31;8.63;;;6.00;;
61905;SDS011;47863;55.766;37.672;2023-08-08T12:47:57;8.82;;;6.00;;
61905;SDS011;47863;55.766;37.672;2023-08-08T12:50:22;7.95;;;6.10;;
61905;SDS011;47863;55.766;37.672;2023-08-08T12:52:48;7.68;;;6.05;;
61905;SDS011;47863;55.766;37.672;2023-08-08T12:55:14;8.88;;;5.13;;
61905;SDS011;47863;55.766;37.672;2023-08-08T12:57:42;10.23;;;5.88;;
61905;SDS011;47863;55.766;37.672;2023-08-08T13:00:08;7.68;;;5.70;;
61905;SDS011;47863;55.766;37.672;2023-08-08T13:02:34;7.53;;;5.65;;
61905;SDS011;47863;55.766;37.672;2023-08-08T13:05:00;6.57;;;5.25;;
61905;SDS011;47863;55.766;37.672;2023-08-08T13:07:25;9.45;;;5.65;;
61905;SDS011;47863;55.766;37.672;2023-08-08T13:09:51;7.82;;;5.60;;
61905;SDS011;47863;55.766;37.672;2023-08-08T13:12:17;8.10;;;5.60;;
61905;SDS011;47863;55.766;37.672;2023-08-08T13:14:42;7.82;;;5.10;;
61905;SDS011;47863;55.766;37.672;2023-08-08T13:17:08;10.25;;;5.40;;
61905;SDS011;47863;55.766;37.672;2023-08-08T13:19:34;8.45;;;4.90;;
61905;SDS011;47863;55.766;37.672;2023-08-08T13:22:00;8.73;;;5.68;;
61905;SDS011;47863;55.766;37.672;2023-08-08T13:24:26;8.93;;;5.50;;
61905;SDS011;47863;55.766;37.672;2023-08-08T13:26:51;9.43;;;5.70;;
61905;SDS011;47863;55.766;37.672;2023-08-08T13:29:17;9.07;;;5.57;;
61905;SDS011;47863;55.766;37.672;2023-08-08T13:31:43;8.50;;;5.30;;
61905;SDS011;47863;55.766;37.672;2023-08-08T13:34:09;6.60;;;4.63;;
61905;SDS011;47863;55.766;37.672;2023-08-08T13:36:35;8.38;;;5.68;;
61905;SDS011;47863;55.766;37.672;2023-08-08T13:39:01;13.05;;;5.75;;
61905;SDS011;47863;55.766;37.672;2023-08-08T13:41:26;9.00;;;5.60;;
61905;SDS011;47863;55.766;37.672;2023-08-08T13:43:52;9.40;;;6.40;;
61905;SDS011;47863;55.766;37.672;2023-08-08T13:46:17;10.77;;;6.63;;
61905;SDS011;47863;55.766;37.672;2023-08-08T13:48:43;9.40;;;6.80;;
61905;SDS011;47863;55.766;37.672;2023-08-08T13:51:08;9.32;;;6.70;;
61905;SDS011;47863;55.766;37.672;2023-08-08T13:53:34;8.45;;;5.97;;
61905;SDS011;47863;55.766;37.672;2023-08-08T13:56:00;8.82;;;6.13;;
61905;SDS011;47863;55.766;37.672;2023-08-08T13:58:25;10.20;;;6.13;;
61905;SDS011;47863;55.766;37.672;2023-08-08T14:00:51;7.07;;;5.28;;
61905;SDS011;47863;55.766;37.672;2023-08-08T14:03:17;8.88;;;6.03;;
61905;SDS011;47863;55.766;37.672;2023-08-08T14:05:43;10.63;;;6.57;;
61905;SDS011;47863;55.766;37.672;2023-08-08T14:08:09;8.95;;;6.55;;
61905;SDS011;47863;55.766;37.672;2023-08-08T14:10:35;9.88;;;5.60;;
61905;SDS011;47863;55.766;37.672;2023-08-08T14:13:01;10.07;;;6.47;;
61905;SDS011;47863;55.766;37.672;2023-08-08T14:15:28;10.70;;;6.65;;
61905;SDS011;47863;55.766;37.672;2023-08-08T14:17:54;10.70;;;6.35;;
61905;SDS011;47863;55.766;37.672;2023-08-08T14:20:20;11.02;;;6.57;;
61905;SDS011;47863;55.766;37.672;2023-08-08T14:22:46;7.95;;;5.93;;
61905;SDS011;47863;55.766;37.672;2023-08-08T14:25:12;10.88;;;6.57;;
61905;SDS011;47863;55.766;37.672;2023-08-08T14:27:38;7.07;;;5.63;;
61905;SDS011;47863;55.766;37.672;2023-08-08T14:30:04;7.30;;;5.70;;
61905;SDS011;47863;55.766;37.672;2023-08-08T14:32:31;10.43;;;6.95;;
61905;SDS011;47863;55.766;37.672;2023-08-08T14:34:57;9.90;;;6.47;;
61905;SDS011;47863;55.766;37.672;2023-08-08T14:37:23;8.55;;;5.93;;